createdAt,value
2019-03-10T00:00:52.867Z,9.77
2019-03-10T00:03:22.260Z,9.40
2019-03-10T00:05:50.177Z,9.73
2019-03-10T00:08:17.909Z,9.20
2019-03-10T00:10:45.498Z,8.53
2019-03-10T00:13:13.126Z,9.73
2019-03-10T00:15:40.685Z,8.07
2019-03-10T00:18:08.482Z,8.23
2019-03-10T00:20:36.125Z,6.87
2019-03-10T00:23:03.822Z,7.70
2019-03-10T00:25:31.496Z,6.80
2019-03-10T00:27:59.119Z,6.73
2019-03-10T00:30:26.729Z,6.17
2019-03-10T00:32:54.394Z,8.40
2019-03-10T00:35:22.090Z,9.63
2019-03-10T00:37:49.785Z,9.40
2019-03-10T00:40:59.526Z,6.63
2019-03-10T00:43:59.709Z,6.60
2019-03-10T00:47:03.785Z,6.63
2019-03-10T00:50:12.977Z,8.47
2019-03-10T00:52:44.205Z,6.37
2019-03-10T00:55:11.777Z,7.40
2019-03-10T00:57:39.518Z,5.50
2019-03-10T01:00:14.301Z,5.87
2019-03-10T01:02:42.467Z,7.73
2019-03-10T01:05:10.034Z,5.93
2019-03-10T01:07:37.579Z,6.70
2019-03-10T01:10:06.043Z,5.47
2019-03-10T01:12:33.675Z,6.87
2019-03-10T01:15:01.330Z,7.70
2019-03-10T01:17:29.232Z,8.40
2019-03-10T01:19:57.001Z,9.73
2019-03-10T01:22:25.140Z,10.30
2019-03-10T01:24:52.748Z,9.63
2019-03-10T01:27:20.305Z,11.03
2019-03-10T01:29:47.921Z,11.27
2019-03-10T01:32:35.264Z,9.33
2019-03-10T01:35:15.309Z,10.43
2019-03-10T01:37:42.910Z,9.33
2019-03-10T01:40:10.668Z,12.33
2019-03-10T01:42:38.254Z,11.97
2019-03-10T01:45:06.778Z,9.00
2019-03-10T01:47:34.314Z,12.07
2019-03-10T01:50:01.921Z,11.50
2019-03-10T01:52:29.467Z,10.47
2019-03-10T01:54:57.106Z,13.87
2019-03-10T01:57:24.698Z,13.43
2019-03-10T01:59:52.338Z,14.67
2019-03-10T02:02:25.589Z,15.83
2019-03-10T02:04:50.539Z,16.63
2019-03-10T02:07:18.118Z,13.40
2019-03-10T02:09:45.729Z,12.57
2019-03-10T02:12:13.325Z,13.67
2019-03-10T02:14:40.888Z,12.83
2019-03-10T02:17:08.422Z,12.50
2019-03-10T02:19:35.964Z,13.57
2019-03-10T02:22:03.568Z,16.17
2019-03-10T02:24:31.107Z,14.50
2019-03-10T02:26:58.746Z,14.87
2019-03-10T02:29:27.300Z,14.47
2019-03-10T02:31:54.929Z,14.67
2019-03-10T02:34:22.491Z,13.70
2019-03-10T02:36:50.152Z,18.20
2019-03-10T02:39:17.663Z,15.13
2019-03-10T02:41:45.300Z,13.93
2019-03-10T02:44:12.879Z,15.30
2019-03-10T02:46:40.438Z,12.67
2019-03-10T02:49:08.000Z,12.67
2019-03-10T02:51:35.657Z,13.17
2019-03-10T02:54:03.220Z,13.53
2019-03-10T02:56:30.828Z,11.37
2019-03-10T02:58:58.383Z,13.30
2019-03-10T03:01:26.020Z,12.70
2019-03-10T03:03:53.599Z,12.93
2019-03-10T03:06:21.600Z,11.03
2019-03-10T03:08:49.177Z,12.67
2019-03-10T03:11:16.803Z,13.50
2019-03-10T03:13:44.337Z,12.83
2019-03-10T03:16:11.959Z,10.37
2019-03-10T03:18:39.547Z,12.03
2019-03-10T03:21:07.157Z,12.83
2019-03-10T03:23:34.707Z,11.60
2019-03-10T03:26:03.379Z,11.97
2019-03-10T03:28:30.923Z,10.47
2019-03-10T03:30:58.573Z,12.20
2019-03-10T03:33:26.169Z,10.37
2019-03-10T03:35:56.109Z,10.37
2019-03-10T03:38:27.055Z,10.20
2019-03-10T03:40:58.060Z,10.53
2019-03-10T03:43:25.759Z,8.43
2019-03-10T03:45:53.371Z,10.83
2019-03-10T03:48:20.989Z,10.87
2019-03-10T03:50:48.604Z,10.37
2019-03-10T03:53:16.142Z,9.13
2019-03-10T03:55:44.897Z,10.77
2019-03-10T03:58:12.441Z,12.30
2019-03-10T04:00:41.512Z,13.57
2019-03-10T04:03:09.320Z,11.70
2019-03-10T04:05:37.547Z,10.00
2019-03-10T04:08:05.455Z,8.80
2019-03-10T04:10:33.392Z,9.37
2019-03-10T04:13:01.114Z,9.57
2019-03-10T04:15:29.113Z,8.77
2019-03-10T04:17:56.900Z,9.90
2019-03-10T04:20:24.785Z,9.80
2019-03-10T04:22:52.913Z,9.00
2019-03-10T04:25:20.964Z,11.73
2019-03-10T04:27:49.169Z,8.93
2019-03-10T04:30:16.729Z,9.57
2019-03-10T04:32:44.382Z,10.10
2019-03-10T04:35:12.059Z,8.33
2019-03-10T04:37:39.665Z,9.83
2019-03-10T04:40:07.181Z,11.00
2019-03-10T04:42:34.810Z,9.77
2019-03-10T04:45:02.392Z,9.70
2019-03-10T04:47:30.009Z,7.93
2019-03-10T04:49:57.531Z,10.20
2019-03-10T04:52:25.106Z,10.80
2019-03-10T04:55:11.256Z,9.73
2019-03-10T04:57:55.797Z,10.50
2019-03-10T05:00:23.495Z,10.20
2019-03-10T05:02:51.082Z,7.70
2019-03-10T05:05:18.638Z,8.63
2019-03-10T05:07:46.208Z,12.03
2019-03-10T05:10:13.805Z,7.70
2019-03-10T05:12:41.401Z,10.03
2019-03-10T05:15:09.042Z,10.60
2019-03-10T05:17:36.580Z,8.50
2019-03-10T05:20:04.560Z,8.00
2019-03-10T05:22:32.220Z,7.83
2019-03-10T05:24:59.921Z,8.40
2019-03-10T05:27:27.534Z,9.27
2019-03-10T05:29:56.068Z,8.70
2019-03-10T05:32:23.731Z,8.73
2019-03-10T05:34:51.453Z,8.50
2019-03-10T05:37:19.129Z,8.97
2019-03-10T05:39:46.850Z,7.63
2019-03-10T05:42:14.503Z,7.83
2019-03-10T05:44:42.182Z,8.10
2019-03-10T05:47:09.996Z,9.93
2019-03-10T05:49:37.711Z,9.67
2019-03-10T05:52:05.958Z,9.70
2019-03-10T05:54:33.591Z,8.93
2019-03-10T05:57:01.251Z,8.17
2019-03-10T05:59:28.921Z,7.77
2019-03-10T06:01:56.555Z,9.03
2019-03-10T06:04:24.309Z,8.83
2019-03-10T06:06:51.968Z,8.83
2019-03-10T06:09:20.532Z,7.50
2019-03-10T06:11:48.153Z,8.73
2019-03-10T06:14:16.126Z,7.30
2019-03-10T06:16:44.335Z,8.47
2019-03-10T06:19:12.305Z,9.63
2019-03-10T06:21:40.598Z,10.63
2019-03-10T06:24:08.704Z,10.63
2019-03-10T06:26:36.737Z,10.93
2019-03-10T06:29:04.344Z,9.60
2019-03-10T06:31:33.053Z,8.93
2019-03-10T06:34:00.620Z,10.47
2019-03-10T06:36:28.252Z,8.60
2019-03-10T06:38:55.868Z,9.70
2019-03-10T06:41:23.498Z,8.20
2019-03-10T06:43:51.087Z,9.87
2019-03-10T06:46:18.869Z,9.70
2019-03-10T06:48:46.449Z,13.83
2019-03-10T06:51:14.056Z,11.93
2019-03-10T06:53:41.730Z,12.77
2019-03-10T06:56:09.343Z,9.53
2019-03-10T06:58:36.878Z,10.50
2019-03-10T07:01:04.500Z,10.07
2019-03-10T07:03:32.089Z,9.07
2019-03-10T07:05:59.673Z,9.67
2019-03-10T07:08:27.280Z,8.73
2019-03-10T07:10:54.965Z,7.80
2019-03-10T07:13:22.573Z,9.07
2019-03-10T07:15:51.222Z,9.50
2019-03-10T07:18:18.781Z,7.33
2019-03-10T07:20:46.432Z,11.13
2019-03-10T07:23:15.694Z,8.83
2019-03-10T07:25:43.360Z,10.13
2019-03-10T07:28:32.262Z,10.07
2019-03-10T07:31:12.336Z,7.00
2019-03-10T07:34:11.718Z,9.33
2019-03-10T07:36:58.881Z,7.97
2019-03-10T07:39:48.728Z,10.70
2019-03-10T07:42:25.047Z,8.67
2019-03-10T07:45:03.889Z,8.83
2019-03-10T07:47:41.284Z,8.53
2019-03-10T07:50:28.482Z,9.30
2019-03-10T07:53:30.746Z,8.77
2019-03-10T07:56:11.545Z,6.93
2019-03-10T07:58:57.207Z,11.23
2019-03-10T08:02:02.217Z,7.03
2019-03-10T08:04:47.761Z,7.93
2019-03-10T08:07:51.055Z,7.00
2019-03-10T08:10:44.570Z,8.67
2019-03-10T08:13:37.737Z,11.50
2019-03-10T08:16:42.694Z,6.67
2019-03-10T08:19:26.479Z,6.70
2019-03-10T08:22:25.723Z,7.77
2019-03-10T08:25:11.768Z,8.07
2019-03-10T08:28:02.175Z,7.13
2019-03-10T08:30:40.931Z,6.47
2019-03-10T08:33:33.749Z,12.83
2019-03-10T08:36:32.621Z,7.90
2019-03-10T08:39:34.695Z,10.63
2019-03-10T08:42:20.501Z,11.37
2019-03-10T08:45:05.520Z,6.20
2019-03-10T08:47:44.863Z,8.77
2019-03-10T08:50:32.079Z,8.63
2019-03-10T08:53:05.160Z,9.67
2019-03-10T08:55:39.622Z,9.23
2019-03-10T08:58:29.384Z,7.43
2019-03-10T09:01:34.823Z,6.37
2019-03-10T09:04:20.768Z,6.93
2019-03-10T09:07:10.424Z,8.47
2019-03-10T09:10:05.368Z,7.57
2019-03-10T09:12:48.373Z,7.23
2019-03-10T09:15:34.026Z,8.70
2019-03-10T09:18:27.156Z,9.37
2019-03-10T09:21:13.418Z,7.13
2019-03-10T09:24:06.407Z,8.50
2019-03-10T09:26:51.998Z,6.47
2019-03-10T09:29:43.712Z,6.63
2019-03-10T09:32:38.410Z,6.13
2019-03-10T09:35:13.437Z,8.90
2019-03-10T09:37:56.798Z,7.57
2019-03-10T09:40:46.422Z,8.20
2019-03-10T09:43:33.702Z,7.53
2019-03-10T09:46:20.751Z,7.30
2019-03-10T09:49:12.365Z,6.60
2019-03-10T09:51:46.706Z,7.53
2019-03-10T09:54:22.691Z,8.50
2019-03-10T09:57:09.896Z,6.60
2019-03-10T09:59:46.488Z,5.80
2019-03-10T10:02:32.143Z,7.47
2019-03-10T10:05:09.502Z,7.43
2019-03-10T10:07:53.798Z,8.07
2019-03-10T10:10:36.502Z,8.00
2019-03-10T10:13:23.669Z,8.40
2019-03-10T10:16:03.663Z,8.20
2019-03-10T10:18:44.673Z,9.30
2019-03-10T10:21:22.963Z,7.93
2019-03-10T10:24:08.426Z,9.27
2019-03-10T10:26:58.497Z,10.53
2019-03-10T10:29:48.665Z,11.50
2019-03-10T10:32:34.317Z,6.97
2019-03-10T10:35:12.542Z,7.23
2019-03-10T10:37:59.623Z,8.90
2019-03-10T10:40:46.814Z,7.50
2019-03-10T10:43:32.897Z,5.10
2019-03-10T10:46:11.470Z,7.20
2019-03-10T10:48:58.621Z,6.50
2019-03-10T10:51:45.794Z,7.40
2019-03-10T10:54:27.986Z,6.77
2019-03-10T10:57:13.505Z,7.43
2019-03-10T10:59:55.192Z,6.23
2019-03-10T11:02:54.521Z,7.97
2019-03-10T11:05:30.697Z,7.57
2019-03-10T11:08:23.675Z,7.57
2019-03-10T11:11:09.695Z,5.47
2019-03-10T11:13:57.407Z,7.47
2019-03-10T11:16:39.241Z,7.43
2019-03-10T11:19:24.067Z,5.63
2019-03-10T11:21:59.025Z,6.80
2019-03-10T11:24:46.410Z,10.33
2019-03-10T11:27:33.644Z,6.80
2019-03-10T11:30:35.974Z,6.70
2019-03-10T11:33:19.922Z,7.50
2019-03-10T11:36:05.443Z,5.17
2019-03-10T11:38:53.781Z,6.43
2019-03-10T11:41:43.683Z,6.03
2019-03-10T11:44:39.859Z,9.30
2019-03-10T11:47:32.644Z,7.77
2019-03-10T11:50:38.230Z,5.53
2019-03-10T11:53:19.046Z,4.97
2019-03-10T11:56:06.136Z,8.30
2019-03-10T11:58:53.286Z,6.47
2019-03-10T12:01:35.273Z,8.60
2019-03-10T12:04:22.555Z,7.27
2019-03-10T12:07:09.816Z,6.53
2019-03-10T12:09:37.538Z,5.43
2019-03-10T12:12:05.283Z,6.17
2019-03-10T12:14:32.984Z,5.20
2019-03-10T12:17:00.667Z,5.13
2019-03-10T12:19:28.339Z,4.80
2019-03-10T12:21:56.323Z,5.77
2019-03-10T12:24:24.286Z,5.00
2019-03-10T12:26:51.820Z,3.90
2019-03-10T12:29:19.412Z,5.40
2019-03-10T12:31:46.983Z,3.60
2019-03-10T12:34:14.625Z,4.10
2019-03-10T12:36:42.235Z,4.40
2019-03-10T12:39:11.562Z,3.57
2019-03-10T12:41:39.183Z,6.03
2019-03-10T12:44:07.161Z,7.20
2019-03-10T12:46:34.718Z,5.30
2019-03-10T12:49:02.419Z,5.30
2019-03-10T12:51:30.031Z,5.83
2019-03-10T12:53:57.644Z,6.10
2019-03-10T12:56:25.338Z,3.93
2019-03-10T12:58:53.116Z,3.53
2019-03-10T13:01:20.885Z,5.17
2019-03-10T13:03:58.400Z,4.77
2019-03-10T13:06:18.158Z,5.77
2019-03-10T13:08:45.762Z,4.00
2019-03-10T13:11:13.403Z,4.70
2019-03-10T13:13:40.994Z,8.37
2019-03-10T13:16:12.382Z,4.07
2019-03-10T13:18:40.073Z,4.97
2019-03-10T13:21:07.751Z,4.53
2019-03-10T13:23:35.275Z,5.70
2019-03-10T13:26:02.918Z,4.10
2019-03-10T13:28:30.525Z,5.47
2019-03-10T13:30:58.175Z,5.27
2019-03-10T13:33:25.844Z,4.73
2019-03-10T13:35:53.572Z,4.17
2019-03-10T13:38:21.176Z,3.73
2019-03-10T13:40:48.829Z,6.77
2019-03-10T13:43:16.366Z,3.40
2019-03-10T13:45:44.074Z,5.87
2019-03-10T13:48:11.659Z,6.00
2019-03-10T13:50:39.368Z,5.37
2019-03-10T13:53:06.973Z,5.67
2019-03-10T13:55:34.675Z,4.47
2019-03-10T13:58:02.303Z,4.80
2019-03-10T14:00:31.162Z,4.00
2019-03-10T14:02:58.770Z,7.40
2019-03-10T14:05:26.496Z,4.50
2019-03-10T14:07:54.246Z,7.57
2019-03-10T14:10:21.994Z,4.03
2019-03-10T14:12:50.014Z,3.80
2019-03-10T14:15:17.724Z,4.73
2019-03-10T14:17:45.471Z,5.23
2019-03-10T14:20:15.894Z,5.40
2019-03-10T14:22:43.603Z,5.63
2019-03-10T14:25:11.652Z,3.60
2019-03-10T14:27:39.308Z,5.00
2019-03-10T14:30:07.185Z,3.93
2019-03-10T14:32:34.913Z,3.03
2019-03-10T14:35:02.427Z,6.20
2019-03-10T14:37:30.112Z,5.70
2019-03-10T14:39:57.676Z,5.87
2019-03-10T14:42:25.369Z,3.13
2019-03-10T14:44:53.050Z,7.03
2019-03-10T14:47:23.541Z,4.20
2019-03-10T14:49:51.093Z,4.07
2019-03-10T14:52:26.933Z,5.03
2019-03-10T14:54:54.561Z,4.70
2019-03-10T14:57:22.106Z,5.73
2019-03-10T14:59:49.715Z,3.47
2019-03-10T15:02:17.339Z,4.27
2019-03-10T15:04:44.924Z,3.70
2019-03-10T15:07:13.523Z,4.50
2019-03-10T15:09:41.089Z,3.93
2019-03-10T15:12:08.654Z,4.17
2019-03-10T15:14:36.262Z,3.83
2019-03-10T15:17:03.824Z,4.97
2019-03-10T15:19:32.495Z,7.17
2019-03-10T15:22:00.170Z,3.87
2019-03-10T15:24:27.777Z,3.87
2019-03-10T15:26:55.399Z,3.90
2019-03-10T15:29:23.041Z,3.90
2019-03-10T15:31:50.702Z,5.20
2019-03-10T15:34:18.340Z,3.47
2019-03-10T15:36:45.966Z,4.27
2019-03-10T15:39:13.588Z,3.50
2019-03-10T15:41:41.201Z,4.83
2019-03-10T15:44:08.788Z,4.50
2019-03-10T15:46:36.475Z,3.63
2019-03-10T15:49:04.075Z,3.63
2019-03-10T15:51:31.606Z,3.43
2019-03-10T15:53:59.173Z,4.90
2019-03-10T15:56:27.855Z,4.23
2019-03-10T15:58:55.443Z,2.80
2019-03-10T16:01:23.053Z,6.07
2019-03-10T16:03:51.012Z,3.93
2019-03-10T16:06:18.711Z,5.67
2019-03-10T16:08:46.329Z,5.60
2019-03-10T16:11:13.972Z,4.43
2019-03-10T16:13:41.584Z,4.63
2019-03-10T16:16:09.194Z,5.00
2019-03-10T16:18:36.801Z,3.67
2019-03-10T16:21:05.510Z,3.77
2019-03-10T16:23:33.140Z,4.60
2019-03-10T16:26:00.924Z,3.70
2019-03-10T16:28:28.614Z,6.50
2019-03-10T16:30:56.354Z,4.87
2019-03-10T16:33:25.462Z,4.67
2019-03-10T16:35:53.480Z,3.07
2019-03-10T16:38:21.195Z,3.13
2019-03-10T16:40:48.897Z,3.87
2019-03-10T16:43:18.397Z,4.20
2019-03-10T16:45:46.046Z,7.57
2019-03-10T16:48:13.748Z,4.80
2019-03-10T16:50:41.472Z,5.67
2019-03-10T16:53:09.150Z,4.37
2019-03-10T16:55:36.799Z,4.13
2019-03-10T16:58:04.486Z,4.20
2019-03-10T17:00:32.197Z,3.80
2019-03-10T17:02:59.971Z,7.80
2019-03-10T17:05:27.709Z,4.33
2019-03-10T17:07:55.439Z,6.30
2019-03-10T17:10:23.140Z,5.63
2019-03-10T17:12:50.768Z,7.80
2019-03-10T17:15:18.516Z,4.73
2019-03-10T17:17:46.193Z,4.37
2019-03-10T17:20:14.525Z,5.13
2019-03-10T17:22:42.207Z,5.43
2019-03-10T17:25:10.319Z,7.23
2019-03-10T17:27:37.971Z,6.40
2019-03-10T17:30:07.433Z,3.60
2019-03-10T17:32:37.224Z,3.80
2019-03-10T17:35:04.754Z,6.90
2019-03-10T17:37:34.106Z,5.17
2019-03-10T17:40:01.691Z,9.17
2019-03-10T17:42:30.425Z,7.37
2019-03-10T17:44:58.072Z,4.97
2019-03-10T17:47:26.920Z,3.93
2019-03-10T17:49:54.571Z,6.43
2019-03-10T17:52:22.229Z,6.13
2019-03-10T17:54:49.830Z,7.37
2019-03-10T17:57:17.585Z,6.03
2019-03-10T17:59:45.587Z,6.27
2019-03-10T18:02:13.501Z,6.10
2019-03-10T18:04:41.225Z,4.90
2019-03-10T18:07:08.927Z,3.33
2019-03-10T18:09:36.590Z,4.63
2019-03-10T18:12:04.361Z,3.97
2019-03-10T18:14:32.116Z,4.13
2019-03-10T18:16:59.910Z,5.53
2019-03-10T18:19:27.769Z,5.20
2019-03-10T18:21:55.509Z,5.67
2019-03-10T18:24:23.599Z,4.70
2019-03-10T18:26:53.818Z,5.20
2019-03-10T18:29:22.769Z,3.30
2019-03-10T18:31:50.448Z,4.77
2019-03-10T18:34:18.193Z,5.57
2019-03-10T18:36:45.830Z,3.70
2019-03-10T18:39:13.541Z,4.77
2019-03-10T18:41:41.140Z,4.60
2019-03-10T18:44:09.056Z,4.60
2019-03-10T18:46:36.654Z,3.33
2019-03-10T18:49:04.408Z,5.43
2019-03-10T18:51:32.035Z,4.33
2019-03-10T18:53:59.793Z,3.80
2019-03-10T18:56:27.477Z,4.57
2019-03-10T18:58:55.186Z,4.57
2019-03-10T19:01:22.811Z,4.93
2019-03-10T19:03:50.522Z,4.93
2019-03-10T19:06:18.081Z,6.20
2019-03-10T19:08:46.175Z,5.33
2019-03-10T19:11:13.810Z,3.93
2019-03-10T19:13:41.600Z,4.10
2019-03-10T19:16:09.304Z,6.90
2019-03-10T19:18:37.005Z,6.83
2019-03-10T19:21:04.719Z,5.40
2019-03-10T19:23:32.432Z,3.77
2019-03-10T19:26:00.235Z,5.67
2019-03-10T19:28:27.985Z,3.40
2019-03-10T19:30:55.757Z,4.80
2019-03-10T19:33:23.434Z,3.77
2019-03-10T19:35:51.209Z,5.43
2019-03-10T19:38:19.268Z,4.50
2019-03-10T19:40:46.960Z,4.67
2019-03-10T19:43:14.718Z,4.07
2019-03-10T19:45:43.802Z,3.40
2019-03-10T19:48:11.463Z,6.77
2019-03-10T19:50:39.128Z,5.93
2019-03-10T19:53:07.808Z,5.53
2019-03-10T19:55:35.726Z,5.77
2019-03-10T19:58:04.451Z,4.57
2019-03-10T20:00:32.298Z,3.60
2019-03-10T20:02:59.815Z,5.43
2019-03-10T20:05:27.445Z,5.87
2019-03-10T20:07:55.004Z,5.30
2019-03-10T20:10:22.643Z,4.93
2019-03-10T20:12:51.448Z,5.17
2019-03-10T20:15:19.099Z,4.07
2019-03-10T20:17:46.667Z,4.73
2019-03-10T20:20:15.368Z,5.60
2019-03-10T20:22:42.942Z,5.63
2019-03-10T20:25:10.785Z,3.67
2019-03-10T20:27:38.407Z,4.50
2019-03-10T20:30:07.142Z,5.20
2019-03-10T20:32:34.747Z,6.20
2019-03-10T20:35:02.374Z,4.43
2019-03-10T20:37:31.039Z,5.33
2019-03-10T20:39:58.633Z,6.00
2019-03-10T20:42:26.285Z,5.00
2019-03-10T20:44:53.924Z,5.13
2019-03-10T20:47:21.572Z,4.37
2019-03-10T20:49:49.198Z,5.13
2019-03-10T20:52:16.760Z,4.13
2019-03-10T20:54:44.463Z,6.50
2019-03-10T20:57:12.070Z,3.90
2019-03-10T20:59:39.792Z,4.73
2019-03-10T21:02:07.351Z,3.37
2019-03-10T21:04:34.976Z,4.17
2019-03-10T21:07:02.512Z,4.87
2019-03-10T21:09:30.082Z,5.07
2019-03-10T21:11:57.609Z,6.13
2019-03-10T21:14:25.197Z,4.73
2019-03-10T21:16:52.756Z,4.70
2019-03-10T21:19:20.460Z,4.47
2019-03-10T21:21:48.277Z,4.27
2019-03-10T21:24:15.949Z,6.23
2019-03-10T21:26:43.661Z,5.33
2019-03-10T21:29:11.371Z,4.07
2019-03-10T21:31:39.003Z,6.63
2019-03-10T21:34:06.779Z,3.83
2019-03-10T21:36:34.662Z,5.20
2019-03-10T21:39:02.346Z,4.40
2019-03-10T21:41:31.752Z,5.97
2019-03-10T21:43:59.394Z,3.93
2019-03-10T21:46:27.183Z,7.43
2019-03-10T21:48:54.708Z,4.60
2019-03-10T21:51:22.379Z,4.70
2019-03-10T21:53:52.541Z,6.50
2019-03-10T21:56:20.228Z,6.80
2019-03-10T21:58:47.764Z,6.20
2019-03-10T22:01:15.430Z,6.27
2019-03-10T22:03:43.034Z,5.37
2019-03-10T22:06:10.700Z,6.67
2019-03-10T22:08:38.292Z,4.47
2019-03-10T22:11:05.945Z,4.67
2019-03-10T22:13:33.538Z,4.10
2019-03-10T22:16:01.149Z,4.13
2019-03-10T22:18:28.722Z,4.80
2019-03-10T22:20:56.680Z,3.00
2019-03-10T22:23:24.273Z,4.03
2019-03-10T22:25:51.957Z,3.20
2019-03-10T22:28:19.678Z,2.40
2019-03-10T22:30:47.310Z,2.17
2019-03-10T22:33:16.150Z,2.20
2019-03-10T22:35:43.856Z,2.10
2019-03-10T22:38:12.565Z,2.70
2019-03-10T22:40:42.118Z,3.17
2019-03-10T22:43:09.799Z,2.50
2019-03-10T22:45:39.166Z,3.30
2019-03-10T22:48:06.763Z,3.63
2019-03-10T22:50:34.321Z,4.27
2019-03-10T22:53:01.970Z,3.77
2019-03-10T22:55:29.521Z,2.87
2019-03-10T22:57:57.210Z,2.70
2019-03-10T23:00:29.672Z,2.37
2019-03-10T23:02:59.117Z,4.70
2019-03-10T23:05:26.712Z,3.43
2019-03-10T23:07:54.290Z,3.77
2019-03-10T23:10:21.888Z,3.10
2019-03-10T23:12:49.495Z,2.00
2019-03-10T23:15:17.146Z,1.70
2019-03-10T23:17:44.701Z,2.10
2019-03-10T23:20:12.401Z,2.33
2019-03-10T23:22:41.024Z,1.97
2019-03-10T23:25:09.023Z,1.50
2019-03-10T23:27:36.668Z,2.10
2019-03-10T23:30:06.526Z,1.10
2019-03-10T23:32:34.154Z,1.63
2019-03-10T23:35:01.763Z,2.13
2019-03-10T23:37:29.333Z,2.27
2019-03-10T23:39:56.953Z,1.50
2019-03-10T23:42:24.510Z,1.83
2019-03-10T23:44:52.469Z,1.37
2019-03-10T23:47:20.011Z,1.30
2019-03-10T23:49:47.603Z,2.20
2019-03-10T23:52:15.126Z,2.33
2019-03-10T23:54:43.764Z,1.00
2019-03-10T23:57:11.326Z,1.23
2019-03-10T23:59:38.989Z,1.60
